createdAt,value
2017-03-21T00:00:51.386Z,93.4
2017-03-21T00:01:53.249Z,93.4
2017-03-21T00:02:55.484Z,93.4
2017-03-21T00:03:57.341Z,93.4
2017-03-21T00:04:59.368Z,93.5
2017-03-21T00:06:01.557Z,93.5
2017-03-21T00:07:03.560Z,93.5
2017-03-21T00:08:05.406Z,93.4
2017-03-21T00:09:07.387Z,93.5
2017-03-21T00:10:09.235Z,93.5
2017-03-21T00:11:11.581Z,93.5
2017-03-21T00:12:13.438Z,93.4
2017-03-21T00:13:15.625Z,93.5
2017-03-21T00:14:17.822Z,93.5
2017-03-21T00:15:20.023Z,93.5
2017-03-21T00:16:21.869Z,93.5
2017-03-21T00:17:23.725Z,93.5
2017-03-21T00:18:25.566Z,93.5
2017-03-21T00:19:27.766Z,93.5
2017-03-21T00:20:29.619Z,93.5
2017-03-21T00:21:31.582Z,93.5
2017-03-21T00:22:33.751Z,93.5
2017-03-21T00:23:36.303Z,93.5
2017-03-21T00:24:38.189Z,93.5
2017-03-21T00:25:40.037Z,93.5
2017-03-21T00:26:41.885Z,93.5
2017-03-21T00:27:43.729Z,93.5
2017-03-21T00:28:45.924Z,93.4
2017-03-21T00:29:48.468Z,93.2
2017-03-21T00:30:50.311Z,93.2
2017-03-21T00:31:52.154Z,93.1
2017-03-21T00:32:54.014Z,93
2017-03-21T00:33:56.555Z,92.9
2017-03-21T00:34:58.407Z,92.9
2017-03-21T00:36:00.412Z,92.8
2017-03-21T00:37:02.251Z,92.9
2017-03-21T00:38:04.095Z,92.9
2017-03-21T00:39:05.962Z,93
2017-03-21T00:40:08.157Z,93.1
2017-03-21T00:41:09.998Z,93.2
2017-03-21T00:42:11.849Z,93.2
2017-03-21T00:43:13.692Z,93.2
2017-03-21T00:44:15.890Z,93.2
2017-03-21T00:45:18.080Z,93.3
2017-03-21T00:46:19.926Z,93.3
2017-03-21T00:47:21.759Z,93.4
2017-03-21T00:48:23.678Z,93.4
2017-03-21T00:49:25.880Z,93.4
2017-03-21T00:50:28.092Z,93.5
2017-03-21T00:51:29.930Z,93.4
2017-03-21T00:52:32.123Z,93.4
2017-03-21T00:53:33.969Z,93.5
2017-03-21T00:54:36.161Z,93.5
2017-03-21T00:55:38.334Z,93.5
2017-03-21T00:56:40.390Z,93.5
2017-03-21T00:57:43.145Z,93.5
2017-03-21T00:58:45.007Z,93.3
2017-03-21T00:59:46.852Z,93.4
2017-03-21T01:00:48.832Z,93.4
2017-03-21T01:01:50.679Z,93.4
2017-03-21T01:02:52.529Z,93.4
2017-03-21T01:03:55.100Z,93.4
2017-03-21T01:04:57.311Z,93.3
2017-03-21T01:06:00.194Z,93.3
2017-03-21T01:07:02.031Z,93.2
2017-03-21T01:08:03.879Z,93.3
2017-03-21T01:09:06.402Z,93.2
2017-03-21T01:10:08.289Z,93.3
2017-03-21T01:11:10.128Z,93.3
2017-03-21T01:12:12.458Z,93.3
2017-03-21T01:13:14.640Z,93.3
2017-03-21T01:14:17.166Z,93.3
2017-03-21T01:15:19.633Z,93.4
2017-03-21T01:16:21.476Z,93.3
2017-03-21T01:17:23.314Z,93.3
2017-03-21T01:18:25.662Z,93.2
2017-03-21T01:19:27.849Z,93.2
2017-03-21T01:20:30.055Z,93.2
2017-03-21T01:21:31.898Z,93.2
2017-03-21T01:22:33.743Z,93.2
2017-03-21T01:23:35.849Z,93.2
2017-03-21T01:24:39.046Z,93.2
2017-03-21T01:25:40.891Z,93.2
2017-03-21T01:26:43.266Z,93.3
2017-03-21T01:27:45.120Z,93.2
2017-03-21T01:28:46.972Z,93.2
2017-03-21T01:29:49.431Z,93.2
2017-03-21T01:30:51.280Z,93.2
2017-03-21T01:31:53.139Z,93.2
2017-03-21T01:32:55.809Z,93.2
2017-03-21T01:33:58.001Z,93.2
2017-03-21T01:35:00.402Z,93.2
2017-03-21T01:36:02.251Z,93.1
2017-03-21T01:37:04.091Z,93.1
2017-03-21T01:38:06.152Z,93.1
2017-03-21T01:39:08.332Z,93.1
2017-03-21T01:40:10.175Z,93.2
2017-03-21T01:41:12.387Z,93.2
2017-03-21T01:42:14.225Z,93.2
2017-03-21T01:43:16.086Z,93.2
2017-03-21T01:44:18.398Z,93.2
2017-03-21T01:45:20.238Z,93.2
2017-03-21T01:46:22.090Z,93.2
2017-03-21T01:47:24.221Z,93.2
2017-03-21T01:48:26.074Z,93.2
2017-03-21T01:49:28.263Z,93.2
2017-03-21T01:50:30.261Z,93.2
2017-03-21T01:51:32.119Z,93.2
2017-03-21T01:52:34.318Z,93.2
2017-03-21T01:53:36.767Z,93.2
2017-03-21T01:54:38.621Z,93.2
2017-03-21T01:55:40.474Z,93.2
2017-03-21T01:56:42.367Z,93.1
2017-03-21T01:57:44.213Z,93.1
2017-03-21T01:58:46.058Z,93.1
2017-03-21T01:59:48.173Z,93
2017-03-21T02:00:50.363Z,93.1
2017-03-21T02:01:52.209Z,93.1
2017-03-21T02:02:54.412Z,93.1
2017-03-21T02:03:56.598Z,93.1
2017-03-21T02:04:58.452Z,93.1
2017-03-21T02:06:01.161Z,93.1
2017-03-21T02:07:03.017Z,93.1
2017-03-21T02:08:05.535Z,93
2017-03-21T02:09:07.981Z,93.1
2017-03-21T02:10:09.824Z,93
2017-03-21T02:11:11.933Z,93.1
2017-03-21T02:12:13.786Z,93
2017-03-21T02:13:16.360Z,93.1
2017-03-21T02:14:18.751Z,93
2017-03-21T02:15:20.941Z,93
2017-03-21T02:16:22.818Z,93
2017-03-21T02:17:24.662Z,93
2017-03-21T02:18:26.496Z,93.1
2017-03-21T02:19:28.686Z,93
2017-03-21T02:20:30.527Z,93
2017-03-21T02:21:32.376Z,93
2017-03-21T02:22:34.220Z,93.1
2017-03-21T02:23:37.285Z,93.1
2017-03-21T02:24:40.012Z,93.1
2017-03-21T02:25:42.193Z,93.1
2017-03-21T02:26:44.036Z,93.1
2017-03-21T02:27:46.215Z,93
2017-03-21T02:28:48.076Z,93
2017-03-21T02:29:50.405Z,93
2017-03-21T02:30:52.255Z,93
2017-03-21T02:31:54.095Z,93
2017-03-21T02:32:55.959Z,93
2017-03-21T02:33:58.039Z,93
2017-03-21T02:35:00.572Z,93
2017-03-21T02:36:02.411Z,92.9
2017-03-21T02:37:04.613Z,93
2017-03-21T02:38:06.472Z,92.9
2017-03-21T02:39:08.675Z,92.9
2017-03-21T02:40:10.873Z,93
2017-03-21T02:41:13.060Z,92.9
2017-03-21T02:42:14.903Z,93
2017-03-21T02:43:17.096Z,92.9
2017-03-21T02:44:19.953Z,92.9
2017-03-21T02:45:22.832Z,92.9
2017-03-21T02:46:24.673Z,92.9
2017-03-21T02:47:26.865Z,92.9
2017-03-21T02:48:28.713Z,92.9
2017-03-21T02:49:31.457Z,92.8
2017-03-21T02:50:33.309Z,92.8
2017-03-21T02:51:35.144Z,92.8
2017-03-21T02:52:37.654Z,92.8
2017-03-21T02:53:39.860Z,92.8
2017-03-21T02:54:42.048Z,92.8
2017-03-21T02:55:43.886Z,92.8
2017-03-21T02:56:46.038Z,92.8
2017-03-21T02:57:48.227Z,92.8
2017-03-21T02:58:50.417Z,92.8
2017-03-21T02:59:52.608Z,92.8
2017-03-21T03:00:54.449Z,92.9
2017-03-21T03:01:56.293Z,92.9
2017-03-21T03:02:58.150Z,92.8
2017-03-21T03:04:00.342Z,92.8
2017-03-21T03:05:02.181Z,92.8
2017-03-21T03:06:04.035Z,92.9
2017-03-21T03:07:05.886Z,92.8
2017-03-21T03:08:07.740Z,92.8
2017-03-21T03:09:10.123Z,92.8
2017-03-21T03:10:12.306Z,92.8
2017-03-21T03:11:14.144Z,92.8
2017-03-21T03:12:16.355Z,92.7
2017-03-21T03:13:18.871Z,92.7
2017-03-21T03:14:21.071Z,92.7
2017-03-21T03:15:23.536Z,92.7
2017-03-21T03:16:25.393Z,92.7
2017-03-21T03:17:27.241Z,92.7
2017-03-21T03:18:29.095Z,92.6
2017-03-21T03:19:31.971Z,92.6
2017-03-21T03:20:33.815Z,92.6
2017-03-21T03:21:35.674Z,92.5
2017-03-21T03:22:38.196Z,92.5
2017-03-21T03:23:40.730Z,92.4
2017-03-21T03:24:42.932Z,92.4
2017-03-21T03:25:44.794Z,92.4
2017-03-21T03:26:46.630Z,92.4
2017-03-21T03:27:49.731Z,92.3
2017-03-21T03:28:51.921Z,92.3
2017-03-21T03:29:53.760Z,92.3
2017-03-21T03:30:55.619Z,92.3
2017-03-21T03:31:58.008Z,92.3
2017-03-21T03:32:59.855Z,92.3
2017-03-21T03:34:02.054Z,92.3
2017-03-21T03:35:03.901Z,92.3
2017-03-21T03:36:06.139Z,92.2
2017-03-21T03:37:07.974Z,92.3
2017-03-21T03:38:09.826Z,92.3
2017-03-21T03:39:11.676Z,92.2
2017-03-21T03:40:13.770Z,92.2
2017-03-21T03:41:15.603Z,92.1
2017-03-21T03:42:17.456Z,92.2
2017-03-21T03:43:19.305Z,92.3
2017-03-21T03:44:21.763Z,92.3
2017-03-21T03:45:23.955Z,92.2
2017-03-21T03:46:25.850Z,92.2
2017-03-21T03:47:27.693Z,92.3
2017-03-21T03:48:29.892Z,92.3
2017-03-21T03:49:32.088Z,92.3
2017-03-21T03:50:33.936Z,92.2
2017-03-21T03:51:35.784Z,92.2
2017-03-21T03:52:38.519Z,92.3
2017-03-21T03:53:40.706Z,92.3
2017-03-21T03:54:42.557Z,92.3
2017-03-21T03:55:45.079Z,92.3
2017-03-21T03:56:47.255Z,92.2
2017-03-21T03:57:49.447Z,92.2
2017-03-21T03:58:51.494Z,92.2
2017-03-21T03:59:53.699Z,92.2
2017-03-21T04:00:56.232Z,92.2
2017-03-21T04:01:58.233Z,92.2
2017-03-21T04:03:00.088Z,92.2
2017-03-21T04:04:01.953Z,92.2
2017-03-21T04:05:03.799Z,92.2
2017-03-21T04:06:05.654Z,92.2
2017-03-21T04:07:07.494Z,92.2
2017-03-21T04:08:09.338Z,92.2
2017-03-21T04:09:11.526Z,92.1
2017-03-21T04:10:13.384Z,92.1
2017-03-21T04:11:15.225Z,92.1
2017-03-21T04:12:17.076Z,92.1
2017-03-21T04:13:18.931Z,92.2
2017-03-21T04:14:21.130Z,92.1
2017-03-21T04:15:23.708Z,92.1
2017-03-21T04:16:25.546Z,92.1
2017-03-21T04:17:27.725Z,92
2017-03-21T04:18:29.578Z,92.1
2017-03-21T04:19:31.774Z,92.1
2017-03-21T04:20:33.968Z,92.1
2017-03-21T04:21:35.997Z,92.1
2017-03-21T04:22:38.172Z,92.1
2017-03-21T04:23:40.029Z,92.1
2017-03-21T04:24:42.219Z,92.1
2017-03-21T04:25:44.068Z,92.1
2017-03-21T04:26:46.378Z,92.1
2017-03-21T04:27:48.222Z,92.1
2017-03-21T04:28:50.418Z,92.1
2017-03-21T04:29:52.268Z,92.1
2017-03-21T04:30:54.444Z,92.1
2017-03-21T04:31:56.287Z,92.1
2017-03-21T04:32:58.698Z,92.1
2017-03-21T04:34:00.890Z,92.2
2017-03-21T04:35:03.422Z,92.2
2017-03-21T04:36:05.261Z,92.2
2017-03-21T04:37:07.105Z,92.2
2017-03-21T04:38:09.473Z,92.2
2017-03-21T04:39:11.325Z,92.2
2017-03-21T04:40:13.512Z,92.2
2017-03-21T04:41:15.357Z,92.2
2017-03-21T04:42:18.031Z,92.2
2017-03-21T04:43:20.563Z,92.1
2017-03-21T04:44:23.140Z,92.1
2017-03-21T04:45:24.983Z,92.1
2017-03-21T04:46:26.835Z,92
2017-03-21T04:47:28.675Z,92
2017-03-21T04:48:30.531Z,92
2017-03-21T04:49:32.712Z,92
2017-03-21T04:50:34.901Z,92
2017-03-21T04:51:36.751Z,92
2017-03-21T04:52:38.922Z,92
2017-03-21T04:53:40.779Z,92.1
2017-03-21T04:54:42.970Z,92
2017-03-21T04:55:45.152Z,92
2017-03-21T04:56:46.999Z,92.1
2017-03-21T04:57:49.172Z,92.1
2017-03-21T04:58:51.030Z,92.1
2017-03-21T04:59:54.248Z,92.1
2017-03-21T05:00:56.638Z,92
2017-03-21T05:01:58.812Z,92
2017-03-21T05:03:00.671Z,91.9
2017-03-21T05:04:02.881Z,91.9
2017-03-21T05:05:05.519Z,91.8
2017-03-21T05:06:07.366Z,91.7
2017-03-21T05:07:09.215Z,91.7
2017-03-21T05:08:11.082Z,91.7
2017-03-21T05:09:13.265Z,91.8
2017-03-21T05:10:15.466Z,91.8
2017-03-21T05:11:17.641Z,91.8
2017-03-21T05:12:19.495Z,91.8
2017-03-21T05:13:21.337Z,91.8
2017-03-21T05:14:23.535Z,91.8
2017-03-21T05:15:25.732Z,91.8
2017-03-21T05:16:27.577Z,91.8
2017-03-21T05:17:29.986Z,91.8
2017-03-21T05:18:31.846Z,91.8
2017-03-21T05:19:34.034Z,91.8
2017-03-21T05:20:35.876Z,91.8
2017-03-21T05:21:38.116Z,91.7
2017-03-21T05:22:40.297Z,91.7
2017-03-21T05:23:42.498Z,91.7
2017-03-21T05:24:44.691Z,91.7
2017-03-21T05:25:46.872Z,91.8
2017-03-21T05:26:48.725Z,91.7
2017-03-21T05:27:50.568Z,91.7
2017-03-21T05:28:52.783Z,91.7
2017-03-21T05:29:55.682Z,91.7
2017-03-21T05:30:57.535Z,91.7
2017-03-21T05:31:59.376Z,91.7
2017-03-21T05:33:01.229Z,91.8
2017-03-21T05:34:03.573Z,91.8
2017-03-21T05:35:05.413Z,91.9
2017-03-21T05:36:07.260Z,91.9
2017-03-21T05:37:09.103Z,91.9
2017-03-21T05:38:11.743Z,91.8
2017-03-21T05:39:13.575Z,91.8
2017-03-21T05:40:16.107Z,91.8
2017-03-21T05:41:18.310Z,91.8
2017-03-21T05:42:20.162Z,91.8
2017-03-21T05:43:22.352Z,91.9
2017-03-21T05:44:25.556Z,92
2017-03-21T05:45:27.459Z,92.1
2017-03-21T05:46:29.306Z,92.1
2017-03-21T05:47:31.151Z,92
2017-03-21T05:48:33.006Z,92
2017-03-21T05:49:34.854Z,92
2017-03-21T05:50:36.698Z,92
2017-03-21T05:51:38.542Z,91.9
2017-03-21T05:52:40.720Z,91.9
2017-03-21T05:53:42.586Z,91.9
2017-03-21T05:54:44.426Z,91.9
2017-03-21T05:55:46.270Z,91.9
2017-03-21T05:56:48.117Z,91.9
2017-03-21T05:57:49.963Z,91.9
2017-03-21T05:58:51.810Z,91.9
2017-03-21T05:59:54.335Z,92
2017-03-21T06:00:56.883Z,91.9
2017-03-21T06:01:58.732Z,92
2017-03-21T06:03:00.578Z,92
2017-03-21T06:04:02.761Z,92
2017-03-21T06:05:04.947Z,92
2017-03-21T06:06:06.798Z,92.1
2017-03-21T06:07:08.985Z,92.1
2017-03-21T06:08:10.830Z,92
2017-03-21T06:09:13.364Z,92
2017-03-21T06:10:16.017Z,92
2017-03-21T06:11:17.863Z,92.1
2017-03-21T06:12:19.697Z,92.1
2017-03-21T06:13:21.541Z,92
2017-03-21T06:14:24.023Z,92
2017-03-21T06:15:25.896Z,92
2017-03-21T06:16:27.751Z,92
2017-03-21T06:17:29.591Z,92
2017-03-21T06:18:31.943Z,92
2017-03-21T06:19:33.803Z,91.9
2017-03-21T06:20:35.983Z,91.9
2017-03-21T06:21:37.832Z,91.9
2017-03-21T06:22:40.085Z,91.8
2017-03-21T06:23:41.947Z,91.8
2017-03-21T06:24:43.791Z,91.8
2017-03-21T06:25:45.629Z,91.8
2017-03-21T06:26:47.531Z,91.8
2017-03-21T06:27:49.377Z,91.9
2017-03-21T06:28:51.898Z,91.9
2017-03-21T06:29:54.118Z,92
2017-03-21T06:30:56.307Z,92
2017-03-21T06:31:58.494Z,92.1
2017-03-21T06:33:00.343Z,92
2017-03-21T06:34:02.195Z,92
2017-03-21T06:35:04.040Z,92.1
2017-03-21T06:36:05.880Z,92
2017-03-21T06:37:08.058Z,92
2017-03-21T06:38:09.905Z,92.1
2017-03-21T06:39:12.085Z,92
2017-03-21T06:40:13.939Z,92
2017-03-21T06:41:15.780Z,92
2017-03-21T06:42:17.623Z,92.1
2017-03-21T06:43:19.510Z,92.1
2017-03-21T06:44:21.357Z,92.1
2017-03-21T06:45:23.541Z,92.1
2017-03-21T06:46:25.374Z,92.1
2017-03-21T06:47:27.211Z,92.2
2017-03-21T06:48:29.398Z,92.2
2017-03-21T06:49:32.278Z,92.1
2017-03-21T06:50:34.132Z,92.1
2017-03-21T06:51:36.581Z,92
2017-03-21T06:52:38.433Z,92
2017-03-21T06:53:40.624Z,92
2017-03-21T06:54:42.493Z,92.1
2017-03-21T06:55:44.784Z,92.1
2017-03-21T06:56:46.633Z,92
2017-03-21T06:57:48.822Z,92
2017-03-21T06:58:51.154Z,92
2017-03-21T06:59:53.454Z,92.1
2017-03-21T07:00:55.638Z,92.1
2017-03-21T07:01:57.496Z,92.1
2017-03-21T07:02:59.735Z,92.2
2017-03-21T07:04:01.586Z,92.2
2017-03-21T07:05:03.766Z,92.2
2017-03-21T07:06:05.622Z,92.2
2017-03-21T07:07:07.628Z,92.2
2017-03-21T07:08:09.469Z,92.2
2017-03-21T07:09:11.654Z,92.3
2017-03-21T07:10:13.515Z,92.3
2017-03-21T07:11:15.419Z,92.3
2017-03-21T07:12:17.272Z,92.3
2017-03-21T07:13:19.453Z,92.3
2017-03-21T07:14:21.305Z,92.3
2017-03-21T07:15:23.220Z,92.3
2017-03-21T07:16:25.079Z,92.3
2017-03-21T07:17:26.916Z,92.3
2017-03-21T07:18:28.765Z,92.2
2017-03-21T07:19:31.025Z,92.2
2017-03-21T07:20:32.875Z,92.3
2017-03-21T07:21:34.722Z,92.3
2017-03-21T07:22:36.905Z,92.3
2017-03-21T07:23:38.920Z,92.3
2017-03-21T07:24:41.107Z,92.3
2017-03-21T07:25:43.296Z,92.3
2017-03-21T07:26:45.143Z,92.2
2017-03-21T07:27:46.979Z,92.2
2017-03-21T07:28:48.848Z,92.2
2017-03-21T07:29:50.703Z,92.2
2017-03-21T07:30:52.887Z,92.1
2017-03-21T07:31:54.736Z,92
2017-03-21T07:32:56.568Z,91.9
2017-03-21T07:33:58.770Z,92
2017-03-21T07:35:00.962Z,91.9
2017-03-21T07:36:02.809Z,91.9
2017-03-21T07:37:05.326Z,91.8
2017-03-21T07:38:07.527Z,91.8
2017-03-21T07:39:09.698Z,91.8
2017-03-21T07:40:11.879Z,92
2017-03-21T07:41:14.062Z,92.1
2017-03-21T07:42:15.909Z,92
2017-03-21T07:43:17.769Z,92
2017-03-21T07:44:19.612Z,92.2
2017-03-21T07:45:21.519Z,92.3
2017-03-21T07:46:23.356Z,92.3
2017-03-21T07:47:25.215Z,92.3
2017-03-21T07:48:27.073Z,92.2
2017-03-21T07:49:29.256Z,92.1
2017-03-21T07:50:31.462Z,92
2017-03-21T07:51:33.304Z,92
2017-03-21T07:52:35.497Z,91.9
2017-03-21T07:53:37.355Z,91.8
2017-03-21T07:54:39.536Z,91.9
2017-03-21T07:55:41.385Z,91.9
2017-03-21T07:56:43.236Z,91.8
2017-03-21T07:57:45.090Z,91.8
2017-03-21T07:58:46.941Z,91.5
2017-03-21T07:59:48.795Z,91.5
2017-03-21T08:00:50.644Z,91.7
2017-03-21T08:01:52.490Z,91.8
2017-03-21T08:02:54.339Z,91.7
2017-03-21T08:03:56.204Z,91.8
2017-03-21T08:04:58.061Z,91.8
2017-03-21T08:06:00.411Z,91.8
2017-03-21T08:07:02.381Z,91.9
2017-03-21T08:08:04.268Z,91.9
2017-03-21T08:09:06.473Z,91.9
2017-03-21T08:10:08.672Z,91.8
2017-03-21T08:11:10.557Z,91.8
2017-03-21T08:12:12.407Z,91.8
2017-03-21T08:13:14.277Z,91.9
2017-03-21T08:14:16.459Z,91.9
2017-03-21T08:15:18.333Z,91.8
2017-03-21T08:16:20.555Z,91.8
2017-03-21T08:17:22.510Z,91.8
2017-03-21T08:18:24.410Z,91.9
2017-03-21T08:19:26.595Z,92
2017-03-21T08:20:28.818Z,92
2017-03-21T08:21:31.504Z,92
2017-03-21T08:22:33.464Z,92
2017-03-21T08:23:35.339Z,92
2017-03-21T08:24:37.793Z,92
2017-03-21T08:25:39.683Z,92.2
2017-03-21T08:26:41.586Z,92.5
2017-03-21T08:27:43.470Z,92.7
2017-03-21T08:28:45.374Z,93
2017-03-21T08:29:47.610Z,93.4
2017-03-21T08:30:49.469Z,93.7
2017-03-21T08:31:51.334Z,94.2
2017-03-21T08:32:53.768Z,94.6
2017-03-21T08:33:55.666Z,94.7
2017-03-21T08:34:57.541Z,94.6
2017-03-21T08:35:59.403Z,94.3
2017-03-21T08:37:01.278Z,93.6
2017-03-21T08:38:03.878Z,93.3
2017-03-21T08:39:06.422Z,93.1
2017-03-21T08:40:08.305Z,92.8
2017-03-21T08:41:10.738Z,92.8
2017-03-21T08:42:12.957Z,92.8
2017-03-21T08:43:14.836Z,92.9
2017-03-21T08:44:16.696Z,92.9
2017-03-21T08:45:18.551Z,93.1
2017-03-21T08:46:20.414Z,93
2017-03-21T08:47:22.264Z,92.8
2017-03-21T08:48:24.242Z,92.9
2017-03-21T08:49:26.747Z,92.7
2017-03-21T08:50:29.308Z,92.7
2017-03-21T08:51:31.221Z,92.4
2017-03-21T08:52:33.081Z,92.2
2017-03-21T08:53:34.929Z,92.1
2017-03-21T08:54:36.826Z,92.3
2017-03-21T08:55:39.332Z,92.3
2017-03-21T08:56:41.210Z,92.3
2017-03-21T08:57:43.087Z,92.1
2017-03-21T08:58:45.296Z,91.7
2017-03-21T08:59:47.193Z,91.6
2017-03-21T09:00:49.041Z,91
2017-03-21T09:01:50.909Z,90.9
2017-03-21T09:02:52.779Z,91.2
2017-03-21T09:03:54.765Z,91.5
2017-03-21T09:04:56.613Z,91.7
2017-03-21T09:05:58.475Z,91.7
2017-03-21T09:07:00.328Z,91.5
2017-03-21T09:08:02.195Z,90.7
2017-03-21T09:09:04.086Z,90.4
2017-03-21T09:10:06.290Z,90.5
2017-03-21T09:11:08.167Z,90.4
2017-03-21T09:12:10.025Z,90.7
2017-03-21T09:13:11.912Z,90.6
2017-03-21T09:14:14.308Z,90.6
2017-03-21T09:15:16.167Z,90.2
2017-03-21T09:16:18.018Z,90
2017-03-21T09:17:20.214Z,89
2017-03-21T09:18:22.089Z,89.9
2017-03-21T09:19:23.950Z,90.1
2017-03-21T09:20:26.404Z,90.2
2017-03-21T09:21:28.299Z,90.1
2017-03-21T09:22:30.151Z,90.1
2017-03-21T09:23:32.631Z,90.2
2017-03-21T09:24:34.500Z,90.2
2017-03-21T09:25:36.437Z,90
2017-03-21T09:26:38.799Z,90.1
2017-03-21T09:27:40.640Z,90.5
2017-03-21T09:28:42.501Z,90.3
2017-03-21T09:29:45.319Z,90.2
2017-03-21T09:30:47.173Z,90.7
2017-03-21T09:31:49.022Z,91.3
2017-03-21T09:32:51.321Z,91.4
2017-03-21T09:33:53.893Z,91.5
2017-03-21T09:34:55.808Z,91.5
2017-03-21T09:35:57.730Z,91.6
2017-03-21T09:36:59.653Z,91.5
2017-03-21T09:38:01.511Z,91.6
2017-03-21T09:39:03.830Z,91.4
2017-03-21T09:40:05.680Z,91.1
2017-03-21T09:41:07.558Z,91
2017-03-21T09:42:10.028Z,91.2
2017-03-21T09:43:11.887Z,91.5
2017-03-21T09:44:13.742Z,91.5
2017-03-21T09:45:16.182Z,91.3
2017-03-21T09:46:18.041Z,91.2
2017-03-21T09:47:19.903Z,91.1
2017-03-21T09:48:22.276Z,90.9
2017-03-21T09:49:24.266Z,91
2017-03-21T09:50:26.134Z,91
2017-03-21T09:51:27.993Z,91
2017-03-21T09:52:30.433Z,90.9
2017-03-21T09:53:32.333Z,90.8
2017-03-21T09:54:34.191Z,90.9
2017-03-21T09:55:36.587Z,90.9
2017-03-21T09:56:38.832Z,90.9
2017-03-21T09:57:41.563Z,91
2017-03-21T09:58:43.455Z,90.9
2017-03-21T09:59:45.361Z,90.9
2017-03-21T10:00:48.036Z,91.2
2017-03-21T10:01:49.892Z,91.4
2017-03-21T10:02:51.801Z,91.2
2017-03-21T10:03:54.023Z,90.6
2017-03-21T10:04:55.881Z,90.4
2017-03-21T10:05:57.747Z,90.4
2017-03-21T10:07:00.188Z,90.5
2017-03-21T10:08:02.386Z,90.3
2017-03-21T10:09:04.247Z,90.6
2017-03-21T10:10:06.605Z,90.9
2017-03-21T10:11:08.466Z,90.6
2017-03-21T10:12:10.316Z,90
2017-03-21T10:13:12.204Z,89.4
2017-03-21T10:14:14.066Z,89
2017-03-21T10:15:15.949Z,88.6
2017-03-21T10:16:17.804Z,87.1
2017-03-21T10:17:19.658Z,86.5
2017-03-21T10:18:21.538Z,87.4
2017-03-21T10:19:23.425Z,87.1
2017-03-21T10:20:25.362Z,86.1
2017-03-21T10:21:27.563Z,85.1
2017-03-21T10:22:29.427Z,85
2017-03-21T10:23:31.344Z,85.8
2017-03-21T10:24:33.265Z,86.7
2017-03-21T10:25:35.467Z,88.1
2017-03-21T10:26:37.650Z,89
2017-03-21T10:27:39.507Z,89.2
2017-03-21T10:28:41.394Z,88.8
2017-03-21T10:29:43.266Z,87.8
2017-03-21T10:30:45.218Z,87.7
2017-03-21T10:31:47.421Z,87.1
2017-03-21T10:32:49.331Z,86.2
2017-03-21T10:33:51.547Z,86.5
2017-03-21T10:34:53.404Z,87
2017-03-21T10:35:55.267Z,86.5
2017-03-21T10:36:57.334Z,85
2017-03-21T10:37:59.207Z,84.8
2017-03-21T10:39:01.573Z,86.1
2017-03-21T10:40:03.812Z,87.1
2017-03-21T10:41:05.677Z,88
2017-03-21T10:42:07.554Z,88.5
2017-03-21T10:43:09.423Z,88.5
2017-03-21T10:44:11.278Z,88.7
2017-03-21T10:45:13.208Z,89.1
2017-03-21T10:46:15.055Z,89.3
2017-03-21T10:47:17.191Z,89.2
2017-03-21T10:48:19.037Z,89.1
2017-03-21T10:49:20.939Z,89
2017-03-21T10:50:23.036Z,88.8
2017-03-21T10:51:25.277Z,88.8
2017-03-21T10:52:27.148Z,88.8
2017-03-21T10:53:29.166Z,88.6
2017-03-21T10:54:31.030Z,88.1
2017-03-21T10:55:32.871Z,87.5
2017-03-21T10:56:34.893Z,87.6
2017-03-21T10:57:36.746Z,87.6
2017-03-21T10:58:38.660Z,87
2017-03-21T10:59:40.506Z,86.6
2017-03-21T11:00:42.372Z,87.1
2017-03-21T11:01:44.220Z,86.7
2017-03-21T11:02:46.099Z,86.9
2017-03-21T11:03:47.991Z,87.1
2017-03-21T11:04:49.850Z,87
2017-03-21T11:05:51.818Z,86
2017-03-21T11:06:53.685Z,85
2017-03-21T11:07:55.545Z,84.3
2017-03-21T11:08:57.634Z,83.4
2017-03-21T11:09:59.502Z,83.2
2017-03-21T11:11:01.366Z,83.6
2017-03-21T11:12:03.742Z,83.5
2017-03-21T11:13:05.603Z,83.2
2017-03-21T11:14:07.473Z,82.8
2017-03-21T11:15:09.325Z,82.7
2017-03-21T11:16:11.298Z,82.5
2017-03-21T11:17:13.176Z,81.5
2017-03-21T11:18:15.048Z,81
2017-03-21T11:19:17.113Z,80.2
2017-03-21T11:20:18.969Z,80
2017-03-21T11:21:20.817Z,80.5
2017-03-21T11:22:22.792Z,81
2017-03-21T11:23:24.648Z,81.3
2017-03-21T11:24:26.508Z,81.5
2017-03-21T11:25:28.582Z,81.7
2017-03-21T11:26:30.481Z,82
2017-03-21T11:27:32.335Z,82.1
2017-03-21T11:28:34.354Z,81.6
2017-03-21T11:29:36.194Z,81.5
2017-03-21T11:30:38.055Z,82
2017-03-21T11:31:39.984Z,82.6
2017-03-21T11:32:41.833Z,82.9
2017-03-21T11:33:43.696Z,82.9
2017-03-21T11:34:45.541Z,83.2
2017-03-21T11:35:47.403Z,83.1
2017-03-21T11:36:49.280Z,82.7
2017-03-21T11:37:51.144Z,82.7
2017-03-21T11:38:52.993Z,83
2017-03-21T11:39:54.933Z,82.9
2017-03-21T11:40:56.772Z,82.9
2017-03-21T11:41:59.314Z,82.9
2017-03-21T11:43:01.510Z,82.9
2017-03-21T11:44:03.377Z,82.7
2017-03-21T11:45:05.303Z,82.9
2017-03-21T11:46:07.165Z,82.9
2017-03-21T11:47:09.024Z,82.8
2017-03-21T11:48:11.088Z,82.8
2017-03-21T11:49:12.971Z,82.7
2017-03-21T11:50:14.861Z,82.7
2017-03-21T11:51:17.060Z,82.9
2017-03-21T11:52:18.955Z,82.9
2017-03-21T11:53:21.137Z,82.8
2017-03-21T11:54:23.348Z,82.7
2017-03-21T11:55:25.210Z,82.5
2017-03-21T11:56:27.394Z,82.5
2017-03-21T11:57:29.323Z,82.1
2017-03-21T11:58:31.196Z,82
2017-03-21T11:59:34.027Z,81.7
2017-03-21T12:00:35.923Z,81.7
2017-03-21T12:01:37.790Z,81.9
2017-03-21T12:02:39.943Z,82.1
2017-03-21T12:03:41.805Z,82.1
2017-03-21T12:04:43.688Z,82.3
2017-03-21T12:05:45.568Z,82.2
2017-03-21T12:06:47.415Z,82.2
2017-03-21T12:07:49.270Z,82.3
2017-03-21T12:08:51.469Z,82.5
2017-03-21T12:09:53.712Z,82.9
2017-03-21T12:10:55.589Z,82.9
2017-03-21T12:11:57.438Z,82.7
2017-03-21T12:12:59.325Z,83.1
2017-03-21T12:14:01.926Z,83.5
2017-03-21T12:15:03.780Z,84.5
2017-03-21T12:16:05.628Z,85.2
2017-03-21T12:17:07.491Z,85.5
2017-03-21T12:18:09.376Z,85.6
2017-03-21T12:19:11.571Z,85.4
2017-03-21T12:20:13.419Z,85.2
2017-03-21T12:21:15.289Z,85.2
2017-03-21T12:22:17.481Z,85
2017-03-21T12:23:19.347Z,85.1
2017-03-21T12:24:21.205Z,84.8
2017-03-21T12:25:23.054Z,84.6
2017-03-21T12:26:24.987Z,84.7
2017-03-21T12:27:26.949Z,84.5
2017-03-21T12:28:29.277Z,84.2
2017-03-21T12:29:31.488Z,84.1
2017-03-21T12:30:33.355Z,84.1
2017-03-21T12:31:35.208Z,84
2017-03-21T12:32:37.060Z,84.1
2017-03-21T12:33:39.284Z,84.1
2017-03-21T12:34:41.196Z,84.2
2017-03-21T12:35:43.039Z,84.1
2017-03-21T12:36:44.894Z,83.6
2017-03-21T12:37:46.767Z,82.5
2017-03-21T12:38:49.068Z,81.9
2017-03-21T12:39:50.938Z,81.5
2017-03-21T12:40:52.785Z,81.2
2017-03-21T12:41:54.987Z,80.7
2017-03-21T12:42:57.195Z,80.7
2017-03-21T12:43:59.311Z,80.8
2017-03-21T12:45:01.551Z,80.6
2017-03-21T12:46:03.550Z,80.7
2017-03-21T12:47:05.513Z,80.6
2017-03-21T12:48:07.404Z,80.6
2017-03-21T12:49:09.338Z,80.7
2017-03-21T12:50:11.207Z,80.4
2017-03-21T12:51:13.159Z,80
2017-03-21T12:52:15.041Z,79.9
2017-03-21T12:53:17.248Z,79.9
2017-03-21T12:54:19.438Z,79.9
2017-03-21T12:55:21.317Z,80.4
2017-03-21T12:56:23.178Z,80.2
2017-03-21T12:57:25.025Z,80.1
2017-03-21T12:58:26.888Z,79.9
2017-03-21T12:59:29.011Z,79.5
2017-03-21T13:00:30.917Z,79.5
2017-03-21T13:01:32.767Z,79.7
2017-03-21T13:02:34.626Z,80.1
2017-03-21T13:03:36.486Z,80
2017-03-21T13:04:38.397Z,79.8
2017-03-21T13:05:40.949Z,80
2017-03-21T13:06:42.797Z,80.2
2017-03-21T13:07:44.663Z,79.9
2017-03-21T13:08:46.588Z,79.5
2017-03-21T13:09:48.442Z,79.1
2017-03-21T13:10:50.299Z,78.8
2017-03-21T13:11:52.166Z,78.8
2017-03-21T13:12:54.036Z,78.7
2017-03-21T13:13:55.950Z,78.9
2017-03-21T13:14:57.966Z,79.3
2017-03-21T13:15:59.816Z,79.5
2017-03-21T13:17:02.014Z,80.1
2017-03-21T13:18:03.893Z,80.2
2017-03-21T13:19:05.770Z,80.7
2017-03-21T13:20:07.629Z,80.8
2017-03-21T13:21:09.491Z,80.6
2017-03-21T13:22:11.699Z,80.5
2017-03-21T13:23:13.547Z,80.5
2017-03-21T13:24:15.404Z,80.6
2017-03-21T13:25:17.270Z,80.9
2017-03-21T13:26:19.138Z,80.8
2017-03-21T13:27:21.425Z,80.5
2017-03-21T13:28:23.285Z,80
2017-03-21T13:29:25.489Z,79.6
2017-03-21T13:30:27.350Z,79.3
2017-03-21T13:31:29.237Z,78.9
2017-03-21T13:32:31.139Z,78.5
2017-03-21T13:33:33.231Z,78.4
2017-03-21T13:34:35.107Z,78.2
2017-03-21T13:35:36.966Z,77.7
2017-03-21T13:36:38.818Z,77.6
2017-03-21T13:37:40.680Z,77.9
2017-03-21T13:38:42.876Z,78
2017-03-21T13:39:45.272Z,78
2017-03-21T13:40:47.141Z,78
2017-03-21T13:41:49.016Z,77.7
2017-03-21T13:42:50.869Z,77.7
2017-03-21T13:43:53.418Z,77.8
2017-03-21T13:44:55.254Z,77.8
2017-03-21T13:45:57.116Z,78
2017-03-21T13:46:58.979Z,78
2017-03-21T13:48:00.846Z,78.1
2017-03-21T13:49:02.772Z,77.9
2017-03-21T13:50:04.638Z,77.7
2017-03-21T13:51:06.488Z,77.6
2017-03-21T13:52:08.735Z,77.8
2017-03-21T13:53:10.590Z,78.1
2017-03-21T13:54:12.450Z,78.4